createdAt,value
2019-05-07T00:02:09.607Z,70.63
2019-05-07T00:04:38.092Z,70.70
2019-05-07T00:07:07.505Z,70.73
2019-05-07T00:09:36.089Z,70.75
2019-05-07T00:12:05.299Z,70.79
2019-05-07T00:14:34.502Z,70.73
2019-05-07T00:17:04.623Z,70.78
2019-05-07T00:19:33.230Z,70.76
2019-05-07T00:22:02.402Z,70.84
2019-05-07T00:24:33.111Z,70.86
2019-05-07T00:27:02.848Z,70.80
2019-05-07T00:29:32.122Z,70.74
2019-05-07T00:32:02.947Z,70.77
2019-05-07T00:34:32.905Z,70.68
2019-05-07T00:37:03.054Z,70.77
2019-05-07T00:39:35.790Z,70.82
2019-05-07T00:42:05.962Z,70.88
2019-05-07T00:44:36.082Z,70.89
2019-05-07T00:47:04.612Z,70.95
2019-05-07T00:49:33.185Z,70.94
2019-05-07T00:52:02.838Z,71.03
2019-05-07T00:54:32.535Z,71.11
2019-05-07T00:57:03.086Z,71.10
2019-05-07T00:59:32.250Z,71.10
2019-05-07T01:02:02.201Z,71.19
2019-05-07T01:04:33.146Z,71.31
2019-05-07T01:07:02.757Z,71.42
2019-05-07T01:09:32.356Z,71.69
2019-05-07T01:12:03.053Z,71.76
2019-05-07T01:14:32.548Z,71.85
2019-05-07T01:17:02.383Z,71.96
2019-05-07T01:19:32.871Z,72.16
2019-05-07T01:22:03.220Z,72.27
2019-05-07T01:24:32.185Z,72.53
2019-05-07T01:27:02.165Z,72.67
2019-05-07T01:29:32.861Z,72.80
2019-05-07T01:32:12.701Z,72.97
2019-05-07T01:34:58.085Z,73.14
2019-05-07T01:37:26.613Z,73.23
2019-05-07T01:39:55.082Z,73.76
2019-05-07T01:42:23.558Z,73.72
2019-05-07T01:44:52.828Z,73.72
2019-05-07T01:47:23.739Z,73.83
2019-05-07T01:49:52.389Z,73.51
2019-05-07T01:52:22.683Z,74.41
2019-05-07T01:54:52.225Z,74.41
2019-05-07T01:57:22.962Z,74.26
2019-05-07T01:59:52.752Z,74.26
2019-05-07T02:02:23.151Z,74.95
2019-05-07T02:04:56.875Z,74.51
2019-05-07T02:07:33.470Z,74.38
2019-05-07T02:10:13.200Z,74.96
2019-05-07T02:12:42.556Z,74.58
2019-05-07T02:15:12.003Z,74.58
2019-05-07T02:17:42.843Z,75.27
2019-05-07T02:20:12.929Z,75.27
2019-05-07T02:22:42.721Z,75.59
2019-05-07T02:25:12.658Z,75.67
2019-05-07T02:27:42.121Z,75.80
2019-05-07T02:30:14.401Z,76.37
2019-05-07T02:32:43.353Z,76.37
2019-05-07T02:35:13.497Z,76.21
2019-05-07T02:37:51.336Z,76.37
2019-05-07T02:40:15.568Z,76.61
2019-05-07T02:42:44.445Z,76.84
2019-05-07T02:45:24.205Z,76.92
2019-05-07T02:47:52.855Z,77.15
2019-05-07T02:50:28.509Z,77.48
2019-05-07T02:53:04.201Z,77.70
2019-05-07T02:55:33.864Z,77.79
2019-05-07T02:58:03.584Z,77.90
2019-05-07T03:00:33.338Z,77.98
2019-05-07T03:03:04.075Z,77.93
2019-05-07T03:05:35.116Z,78.23
2019-05-07T03:08:04.098Z,78.52
2019-05-07T03:10:34.080Z,78.64
2019-05-07T03:13:03.469Z,78.54
2019-05-07T03:15:33.421Z,78.58
2019-05-07T03:18:03.457Z,78.60
2019-05-07T03:20:53.521Z,78.86
2019-05-07T03:23:23.022Z,78.76
2019-05-07T03:25:54.241Z,78.79
2019-05-07T03:28:24.530Z,78.67
2019-05-07T03:30:57.761Z,78.82
2019-05-07T03:33:47.543Z,78.86
2019-05-07T03:36:17.510Z,78.92
2019-05-07T03:38:46.373Z,79.00
2019-05-07T03:41:14.860Z,79.06
2019-05-07T03:43:43.849Z,79.04
2019-05-07T03:46:14.434Z,79.01
2019-05-07T03:48:44.365Z,79.03
2019-05-07T03:51:13.353Z,79.32
2019-05-07T03:53:43.655Z,79.32
2019-05-07T03:56:13.049Z,78.93
2019-05-07T03:58:43.216Z,79.03
2019-05-07T04:01:13.257Z,79.15
2019-05-07T04:03:44.560Z,78.76
2019-05-07T04:06:14.275Z,78.88
2019-05-07T04:08:43.498Z,78.89
2019-05-07T04:11:13.772Z,78.84
2019-05-07T04:13:43.986Z,77.80
2019-05-07T04:16:13.529Z,77.80
2019-05-07T04:18:43.743Z,77.49
2019-05-07T04:21:13.981Z,77.00
2019-05-07T04:23:43.759Z,76.50
2019-05-07T04:26:17.060Z,76.13
2019-05-07T04:29:05.749Z,75.59
2019-05-07T04:31:34.539Z,75.29
2019-05-07T04:34:04.829Z,75.05
2019-05-07T04:36:34.525Z,74.75
2019-05-07T04:39:03.385Z,74.65
2019-05-07T04:41:32.927Z,74.73
2019-05-07T04:44:03.877Z,74.68
2019-05-07T04:46:33.295Z,74.80
2019-05-07T04:49:03.619Z,74.63
2019-05-07T04:51:43.252Z,74.56
2019-05-07T04:54:13.282Z,74.49
2019-05-07T04:56:43.719Z,74.30
2019-05-07T04:59:13.185Z,74.35
2019-05-07T05:01:46.110Z,74.25
2019-05-07T05:04:25.186Z,74.27
2019-05-07T05:06:46.037Z,74.16
2019-05-07T05:09:14.608Z,74.29
2019-05-07T05:11:43.978Z,74.23
2019-05-07T05:14:13.706Z,73.97
2019-05-07T05:16:42.640Z,73.77
2019-05-07T05:19:12.594Z,73.54
2019-05-07T05:21:48.803Z,73.45
2019-05-07T05:24:19.052Z,73.29
2019-05-07T05:26:47.547Z,73.26
2019-05-07T05:29:16.472Z,72.75
2019-05-07T05:31:44.969Z,72.68
2019-05-07T05:34:13.465Z,72.53
2019-05-07T05:36:42.650Z,72.20
2019-05-07T05:39:13.115Z,72.08
2019-05-07T05:41:43.792Z,71.81
2019-05-07T05:44:20.070Z,71.82
2019-05-07T05:46:52.383Z,71.75
2019-05-07T05:49:20.325Z,71.10
2019-05-07T05:52:06.723Z,70.79
2019-05-07T05:54:36.863Z,70.53
2019-05-07T05:57:20.251Z,69.77
2019-05-07T05:59:56.265Z,68.95
2019-05-07T06:02:32.518Z,68.93
2019-05-07T06:05:05.170Z,68.85
2019-05-07T06:07:39.101Z,68.25
2019-05-07T06:10:12.865Z,68.06
2019-05-07T06:12:48.919Z,67.79
2019-05-07T06:15:19.235Z,67.78
2019-05-07T06:17:52.219Z,67.35
2019-05-07T06:20:39.357Z,66.50
2019-05-07T06:23:24.852Z,65.58
2019-05-07T06:25:55.059Z,65.08
2019-05-07T06:28:23.560Z,64.54
2019-05-07T06:30:52.884Z,63.67
2019-05-07T06:33:22.985Z,62.17
2019-05-07T06:35:52.112Z,61.74
2019-05-07T06:38:22.545Z,61.19
2019-05-07T06:41:08.620Z,61.02
2019-05-07T06:43:38.934Z,60.47
2019-05-07T06:46:07.606Z,60.62
2019-05-07T06:48:42.343Z,59.86
2019-05-07T06:51:06.472Z,58.65
2019-05-07T06:53:35.041Z,58.28
2019-05-07T06:56:04.861Z,57.57
2019-05-07T06:58:44.286Z,56.94
2019-05-07T07:01:32.340Z,56.72
2019-05-07T07:04:08.734Z,56.74
2019-05-07T07:06:48.051Z,54.97
2019-05-07T07:09:19.435Z,54.86
2019-05-07T07:11:53.124Z,54.96
2019-05-07T07:14:22.732Z,53.94
2019-05-07T07:16:52.681Z,52.37
2019-05-07T07:19:23.291Z,51.65
2019-05-07T07:21:52.757Z,52.09
2019-05-07T07:24:22.268Z,51.99
2019-05-07T07:26:52.800Z,52.44
2019-05-07T07:29:22.862Z,52.10
2019-05-07T07:31:55.727Z,50.44
2019-05-07T07:34:25.029Z,49.73
2019-05-07T07:37:05.513Z,50.67
2019-05-07T07:39:25.455Z,50.72
2019-05-07T07:41:55.638Z,49.66
2019-05-07T07:44:24.145Z,49.19
2019-05-07T07:46:53.226Z,48.96
2019-05-07T07:49:22.418Z,47.54
2019-05-07T07:51:52.610Z,47.41
2019-05-07T07:54:22.702Z,47.18
2019-05-07T07:57:07.878Z,47.20
2019-05-07T07:59:42.135Z,46.54
2019-05-07T08:02:22.938Z,46.70
2019-05-07T08:04:52.779Z,45.93
2019-05-07T08:07:22.821Z,45.77
2019-05-07T08:09:52.174Z,45.76
2019-05-07T08:12:22.164Z,44.95
2019-05-07T08:14:53.130Z,44.85
2019-05-07T08:17:22.394Z,44.97
2019-05-07T08:19:52.013Z,45.16
2019-05-07T08:22:22.801Z,44.52
2019-05-07T08:24:53.953Z,43.98
2019-05-07T08:27:24.179Z,43.92
2019-05-07T08:29:52.677Z,43.75
2019-05-07T08:32:27.114Z,44.06
2019-05-07T08:35:15.281Z,44.37
2019-05-07T08:37:44.928Z,43.94
2019-05-07T08:40:13.558Z,44.33
2019-05-07T08:42:45.171Z,44.49
2019-05-07T08:45:33.337Z,44.74
2019-05-07T08:48:03.596Z,45.07
2019-05-07T08:50:33.656Z,45.03
2019-05-07T08:53:02.768Z,44.70
2019-05-07T08:55:32.236Z,44.13
2019-05-07T08:58:02.340Z,43.77
2019-05-07T09:00:32.568Z,43.95
2019-05-07T09:03:01.697Z,43.52
2019-05-07T09:05:32.368Z,43.67
2019-05-07T09:08:02.275Z,42.28
2019-05-07T09:10:32.630Z,41.76
2019-05-07T09:13:02.924Z,41.87
2019-05-07T09:15:32.779Z,41.52
2019-05-07T09:18:03.075Z,40.81
2019-05-07T09:20:32.171Z,40.39
2019-05-07T09:23:02.133Z,40.52
2019-05-07T09:25:33.001Z,40.88
2019-05-07T09:28:11.928Z,40.86
2019-05-07T09:30:56.810Z,40.78
2019-05-07T09:33:27.356Z,40.79
2019-05-07T09:36:02.088Z,40.94
2019-05-07T09:38:32.781Z,41.19
2019-05-07T09:41:02.794Z,41.27
2019-05-07T09:43:32.451Z,41.66
2019-05-07T09:46:02.785Z,42.19
2019-05-07T09:48:36.775Z,42.21
2019-05-07T09:51:05.256Z,42.21
2019-05-07T09:53:34.882Z,40.95
2019-05-07T09:56:05.133Z,40.13
2019-05-07T09:58:38.803Z,40.10
2019-05-07T10:01:07.093Z,39.13
2019-05-07T10:03:35.954Z,39.28
2019-05-07T10:06:04.457Z,38.98
2019-05-07T10:08:33.583Z,38.26
2019-05-07T10:11:05.259Z,37.56
2019-05-07T10:13:52.394Z,37.69
2019-05-07T10:16:22.598Z,37.37
2019-05-07T10:18:52.050Z,37.32
2019-05-07T10:21:22.105Z,38.00
2019-05-07T10:23:52.166Z,38.47
2019-05-07T10:26:23.080Z,38.57
2019-05-07T10:28:52.906Z,39.13
2019-05-07T10:31:22.367Z,38.88
2019-05-07T10:33:52.390Z,38.31
2019-05-07T10:36:22.869Z,37.81
2019-05-07T10:38:53.222Z,38.15
2019-05-07T10:41:22.375Z,38.34
2019-05-07T10:43:51.972Z,38.35
2019-05-07T10:46:22.287Z,38.65
2019-05-07T10:48:53.593Z,38.74
2019-05-07T10:51:22.192Z,39.05
2019-05-07T10:53:51.787Z,39.02
2019-05-07T10:56:22.274Z,38.24
2019-05-07T10:58:52.200Z,37.02
2019-05-07T11:01:22.534Z,36.99
2019-05-07T11:03:51.733Z,36.53
2019-05-07T11:06:22.106Z,36.31
2019-05-07T11:08:52.880Z,35.50
2019-05-07T11:11:22.364Z,35.12
2019-05-07T11:13:55.854Z,35.22
2019-05-07T11:16:27.571Z,35.24
2019-05-07T11:18:56.098Z,35.85
2019-05-07T11:21:32.983Z,35.53
2019-05-07T11:24:03.206Z,35.21
2019-05-07T11:26:32.853Z,34.88
2019-05-07T11:29:04.692Z,34.90
2019-05-07T11:31:33.392Z,35.14
2019-05-07T11:34:02.822Z,34.70
2019-05-07T11:36:32.015Z,34.80
2019-05-07T11:39:01.851Z,35.19
2019-05-07T11:41:36.028Z,35.27
2019-05-07T11:44:06.212Z,34.76
2019-05-07T11:46:36.366Z,34.45
2019-05-07T11:49:07.102Z,34.60
2019-05-07T11:51:46.265Z,34.65
2019-05-07T11:54:15.879Z,34.44
2019-05-07T11:56:44.407Z,34.64
2019-05-07T11:59:13.642Z,34.42
2019-05-07T12:01:47.982Z,34.73
2019-05-07T12:04:16.756Z,34.74
2019-05-07T12:06:45.266Z,34.54
2019-05-07T12:09:13.867Z,35.13
2019-05-07T12:11:42.717Z,34.82
2019-05-07T12:14:12.354Z,34.42
2019-05-07T12:16:42.610Z,33.89
2019-05-07T12:19:12.667Z,33.10
2019-05-07T12:21:42.217Z,33.18
2019-05-07T12:24:12.938Z,32.62
2019-05-07T12:26:42.356Z,31.93
2019-05-07T12:29:11.831Z,32.13
2019-05-07T12:31:58.784Z,32.28
2019-05-07T12:34:31.912Z,31.73
2019-05-07T12:37:01.701Z,31.83
2019-05-07T12:39:31.867Z,32.10
2019-05-07T12:42:00.507Z,30.27
2019-05-07T12:44:29.128Z,29.41
2019-05-07T12:46:58.004Z,29.72
2019-05-07T12:49:26.505Z,30.38
2019-05-07T12:52:02.386Z,30.51
2019-05-07T12:54:38.285Z,30.21
2019-05-07T12:57:06.843Z,30.52
2019-05-07T12:59:35.349Z,30.56
2019-05-07T13:02:21.448Z,30.50
2019-05-07T13:04:41.625Z,30.46
2019-05-07T13:07:17.262Z,31.16
2019-05-07T13:09:45.784Z,31.59
2019-05-07T13:12:14.275Z,31.86
2019-05-07T13:14:42.824Z,32.20
2019-05-07T13:17:12.075Z,31.99
2019-05-07T13:19:42.010Z,31.73
2019-05-07T13:22:12.428Z,31.21
2019-05-07T13:24:42.483Z,31.19
2019-05-07T13:27:11.186Z,31.05
2019-05-07T13:29:39.708Z,31.04
2019-05-07T13:32:09.508Z,30.86
2019-05-07T13:34:37.994Z,31.01
2019-05-07T13:37:12.712Z,31.00
2019-05-07T13:39:43.022Z,30.69
2019-05-07T13:42:33.384Z,31.04
2019-05-07T13:45:03.952Z,31.27
2019-05-07T13:47:35.453Z,31.50
2019-05-07T13:50:06.922Z,31.37
2019-05-07T13:52:36.957Z,31.72
2019-05-07T13:55:08.541Z,31.73
2019-05-07T13:57:37.026Z,31.92
2019-05-07T14:00:08.188Z,32.30
2019-05-07T14:02:36.858Z,31.57
2019-05-07T14:05:08.041Z,31.48
2019-05-07T14:07:38.168Z,31.01
2019-05-07T14:10:07.842Z,31.02
2019-05-07T14:12:38.261Z,31.29
2019-05-07T14:15:07.592Z,31.15
2019-05-07T14:17:38.972Z,30.92
2019-05-07T14:20:09.237Z,31.14
2019-05-07T14:22:37.713Z,30.83
2019-05-07T14:25:07.225Z,30.95
2019-05-07T14:27:37.067Z,30.84
2019-05-07T14:30:07.685Z,30.94
2019-05-07T14:32:37.930Z,31.29
2019-05-07T14:35:13.227Z,30.88
2019-05-07T14:37:46.280Z,31.15
2019-05-07T14:40:15.182Z,31.14
2019-05-07T14:42:45.403Z,31.65
2019-05-07T14:45:14.315Z,31.89
2019-05-07T14:47:44.930Z,31.92
2019-05-07T14:50:14.688Z,31.92
2019-05-07T14:52:44.614Z,31.73
2019-05-07T14:55:15.210Z,31.75
2019-05-07T14:57:44.710Z,31.80
2019-05-07T15:00:13.877Z,31.95
2019-05-07T15:02:42.458Z,31.24
2019-05-07T15:05:12.502Z,30.99
2019-05-07T15:07:44.122Z,31.31
2019-05-07T15:10:16.290Z,31.81
2019-05-07T15:12:52.225Z,32.12
2019-05-07T15:15:22.080Z,31.94
2019-05-07T15:17:59.719Z,32.26
2019-05-07T15:20:28.624Z,32.06
2019-05-07T15:23:02.704Z,32.30
2019-05-07T15:25:33.967Z,31.88
2019-05-07T15:28:05.426Z,31.57
2019-05-07T15:30:41.757Z,31.75
2019-05-07T15:33:12.748Z,31.75
2019-05-07T15:35:44.046Z,31.88
2019-05-07T15:38:15.764Z,31.86
2019-05-07T15:40:44.335Z,31.74
2019-05-07T15:43:13.043Z,31.54
2019-05-07T15:45:43.411Z,31.20
2019-05-07T15:48:12.707Z,31.18
2019-05-07T15:50:42.932Z,31.73
2019-05-07T15:53:19.496Z,31.65
2019-05-07T15:55:52.307Z,31.62
2019-05-07T15:58:25.062Z,31.41
2019-05-07T16:00:56.085Z,31.60
2019-05-07T16:03:39.518Z,31.86
2019-05-07T16:06:12.763Z,32.17
2019-05-07T16:08:49.017Z,32.31
2019-05-07T16:11:15.976Z,32.17
2019-05-07T16:14:03.036Z,32.25
2019-05-07T16:16:36.533Z,32.68
2019-05-07T16:19:07.309Z,32.88
2019-05-07T16:21:37.397Z,32.64
2019-05-07T16:24:05.962Z,32.75
2019-05-07T16:26:43.039Z,32.95
2019-05-07T16:29:13.225Z,32.75
2019-05-07T16:31:44.404Z,33.02
2019-05-07T16:34:14.577Z,32.82
2019-05-07T16:36:43.137Z,32.97
2019-05-07T16:39:13.329Z,32.79
2019-05-07T16:41:43.424Z,32.45
2019-05-07T16:44:12.403Z,32.06
2019-05-07T16:46:46.101Z,32.46
2019-05-07T16:49:22.287Z,32.54
2019-05-07T16:51:52.468Z,32.42
2019-05-07T16:54:20.793Z,32.41
2019-05-07T16:56:56.692Z,32.22
2019-05-07T16:59:25.172Z,32.24
2019-05-07T17:01:53.659Z,32.09
2019-05-07T17:04:22.778Z,32.28
2019-05-07T17:06:52.201Z,32.16
2019-05-07T17:09:22.305Z,32.18
2019-05-07T17:11:52.722Z,32.19
2019-05-07T17:14:21.293Z,31.97
2019-05-07T17:16:51.591Z,31.88
2019-05-07T17:19:20.016Z,32.50
2019-05-07T17:21:48.496Z,32.94
2019-05-07T17:24:17.419Z,32.52
2019-05-07T17:26:45.943Z,32.34
2019-05-07T17:29:14.418Z,32.44
2019-05-07T17:31:42.917Z,32.84
2019-05-07T17:34:11.884Z,33.14
2019-05-07T17:36:42.178Z,32.99
2019-05-07T17:39:12.208Z,32.60
2019-05-07T17:41:42.906Z,32.46
2019-05-07T17:44:11.915Z,32.62
2019-05-07T17:46:42.683Z,32.58
2019-05-07T17:49:11.997Z,32.72
2019-05-07T17:51:46.593Z,32.77
2019-05-07T17:54:15.187Z,32.80
2019-05-07T17:56:44.074Z,33.49
2019-05-07T17:59:12.649Z,33.65
2019-05-07T18:01:45.290Z,33.29
2019-05-07T18:04:13.773Z,33.24
2019-05-07T18:06:42.789Z,33.31
2019-05-07T18:09:12.172Z,33.28
2019-05-07T18:11:42.723Z,33.51
2019-05-07T18:14:10.905Z,33.76
2019-05-07T18:16:59.441Z,33.98
2019-05-07T18:19:29.583Z,34.67
2019-05-07T18:21:58.103Z,35.27
2019-05-07T18:24:26.638Z,35.89
2019-05-07T18:26:55.407Z,36.35
2019-05-07T18:29:23.880Z,36.90
2019-05-07T18:31:56.742Z,37.31
2019-05-07T18:34:25.229Z,37.81
2019-05-07T18:36:53.791Z,38.28
2019-05-07T18:39:22.316Z,38.66
2019-05-07T18:41:52.306Z,39.14
2019-05-07T18:44:22.302Z,39.63
2019-05-07T18:46:53.002Z,39.84
2019-05-07T18:49:26.288Z,40.34
2019-05-07T18:51:54.768Z,40.78
2019-05-07T18:54:30.574Z,41.27
2019-05-07T18:56:53.481Z,41.51
2019-05-07T18:59:23.699Z,41.67
2019-05-07T19:01:52.738Z,41.88
2019-05-07T19:04:21.952Z,42.02
2019-05-07T19:06:51.757Z,42.11
2019-05-07T19:09:22.506Z,42.37
2019-05-07T19:11:52.411Z,42.45
2019-05-07T19:14:22.651Z,42.76
2019-05-07T19:16:52.559Z,43.08
2019-05-07T19:19:22.149Z,43.49
2019-05-07T19:21:52.810Z,43.64
2019-05-07T19:24:23.121Z,43.99
2019-05-07T19:26:52.806Z,44.32
2019-05-07T19:29:23.335Z,44.57
2019-05-07T19:31:52.607Z,44.97
2019-05-07T19:34:21.800Z,45.34
2019-05-07T19:36:52.006Z,45.57
2019-05-07T19:39:23.172Z,45.67
2019-05-07T19:41:52.353Z,45.99
2019-05-07T19:44:21.035Z,46.37
2019-05-07T19:46:49.567Z,46.54
2019-05-07T19:49:18.062Z,46.80
2019-05-07T19:51:46.625Z,47.13
2019-05-07T19:54:18.334Z,47.27
2019-05-07T19:56:47.268Z,47.33
2019-05-07T19:59:15.956Z,47.29
2019-05-07T20:01:46.281Z,47.36
2019-05-07T20:04:15.569Z,47.46
2019-05-07T20:06:44.252Z,47.47
2019-05-07T20:09:15.677Z,48.16
2019-05-07T20:11:46.429Z,47.72
2019-05-07T20:14:16.661Z,47.73
2019-05-07T20:16:45.289Z,47.70
2019-05-07T20:19:15.909Z,47.81
2019-05-07T20:21:44.405Z,47.91
2019-05-07T20:24:12.979Z,47.73
2019-05-07T20:26:43.009Z,47.96
2019-05-07T20:29:12.394Z,48.13
2019-05-07T20:31:42.333Z,48.40
2019-05-07T20:34:13.125Z,48.60
2019-05-07T20:36:42.779Z,48.66
2019-05-07T20:39:12.813Z,50.34
2019-05-07T20:41:42.855Z,50.54
2019-05-07T20:44:12.082Z,50.77
2019-05-07T20:46:42.150Z,50.78
2019-05-07T20:49:12.874Z,50.94
2019-05-07T20:51:41.874Z,51.26
2019-05-07T20:54:24.691Z,51.55
2019-05-07T20:57:06.728Z,51.80
2019-05-07T20:59:35.318Z,52.02
2019-05-07T21:02:04.546Z,52.18
2019-05-07T21:04:33.212Z,52.61
2019-05-07T21:07:02.200Z,52.91
2019-05-07T21:09:32.876Z,53.13
2019-05-07T21:12:01.021Z,53.55
2019-05-07T21:14:29.706Z,53.92
2019-05-07T21:16:58.328Z,54.13
2019-05-07T21:19:26.893Z,54.27
2019-05-07T21:21:55.454Z,54.68
2019-05-07T21:24:23.995Z,55.03
2019-05-07T21:26:53.195Z,55.33
2019-05-07T21:29:24.598Z,55.54
2019-05-07T21:31:54.646Z,56.04
2019-05-07T21:34:24.214Z,56.37
2019-05-07T21:36:54.058Z,56.60
2019-05-07T21:39:23.702Z,56.90
2019-05-07T21:41:52.217Z,57.25
2019-05-07T21:44:25.299Z,57.45
2019-05-07T21:46:53.811Z,57.58
2019-05-07T21:49:23.539Z,57.65
2019-05-07T21:51:54.673Z,57.87
2019-05-07T21:54:24.906Z,57.99
2019-05-07T21:57:02.046Z,58.19
2019-05-07T21:59:43.202Z,58.09
2019-05-07T22:02:13.965Z,58.13
2019-05-07T22:04:42.451Z,58.34
2019-05-07T22:07:12.237Z,58.53
2019-05-07T22:09:40.877Z,58.67
2019-05-07T22:12:12.112Z,58.67
2019-05-07T22:14:40.598Z,58.81
2019-05-07T22:17:09.196Z,59.01
2019-05-07T22:19:37.675Z,59.24
2019-05-07T22:22:06.164Z,59.52
2019-05-07T22:24:34.933Z,59.95
2019-05-07T22:27:04.243Z,60.19
2019-05-07T22:29:32.887Z,60.71
2019-05-07T22:32:03.112Z,60.94
2019-05-07T22:34:36.143Z,61.16
2019-05-07T22:37:05.728Z,61.12
2019-05-07T22:39:34.224Z,61.32
2019-05-07T22:42:02.808Z,61.31
2019-05-07T22:44:32.426Z,61.19
2019-05-07T22:47:04.095Z,61.19
2019-05-07T22:49:33.323Z,61.35
2019-05-07T22:52:02.332Z,61.33
2019-05-07T22:54:32.746Z,61.65
2019-05-07T22:57:08.479Z,61.64
2019-05-07T22:59:36.985Z,61.90
2019-05-07T23:02:06.132Z,62.11
2019-05-07T23:04:34.596Z,62.79
2019-05-07T23:07:03.089Z,62.79
2019-05-07T23:09:33.259Z,63.08
2019-05-07T23:12:02.317Z,62.72
2019-05-07T23:14:32.988Z,62.71
2019-05-07T23:17:02.211Z,62.71
2019-05-07T23:19:32.644Z,62.80
2019-05-07T23:22:02.750Z,62.76
2019-05-07T23:24:31.917Z,62.76
2019-05-07T23:27:00.733Z,63.31
2019-05-07T23:29:29.243Z,63.47
2019-05-07T23:31:57.786Z,63.66
2019-05-07T23:34:27.464Z,63.66
2019-05-07T23:36:56.028Z,63.66
2019-05-07T23:39:26.572Z,63.66
2019-05-07T23:42:08.688Z,64.43
2019-05-07T23:44:37.299Z,64.46
2019-05-07T23:47:05.800Z,64.65
2019-05-07T23:49:34.385Z,64.81
2019-05-07T23:52:02.948Z,65.49
2019-05-07T23:54:32.001Z,65.49
2019-05-07T23:57:07.074Z,65.28
2019-05-07T23:59:32.839Z,65.61
